Time;durP1;ratioP1;P1;durP2;ratioP2;P2;SDS_P1;SDS_P2;PMS_P1;PMS_P2;Temp;Humidity;BMP_temperature;BMP_pressure;BME280_temperature;BME280_humidity;BME280_pressure;Samples;Min_cycle;Max_cycle;Signal;HPM_P1;HPM_P2
2022/11/07 00:01:38;;;;;;;27.95;4.15;;;;;;;;;;6273778;22;20011;-86
2022/11/07 00:04:04;;;;;;;25.98;4.38;;;;;;;;;;6272008;22;20003;-88
2022/11/07 00:06:30;;;;;;;17.13;3.30;;;;;;;;;;6273493;22;20000;-90
2022/11/07 00:08:57;;;;;;;20.60;3.20;;;;;;;;;;6273015;22;20034;-89
2022/11/07 00:11:23;;;;;;;29.27;3.85;;;;;;;;;;6273904;22;20395;-90
2022/11/07 00:13:49;;;;;;;20.92;3.47;;;;;;;;;;6272925;22;20325;-91
2022/11/07 00:16:16;;;;;;;24.20;3.35;;;;;;;;;;6273606;22;20000;-86
2022/11/07 00:18:42;;;;;;;21.42;3.58;;;;;;;;;;6272371;22;20004;-90
2022/11/07 00:21:09;;;;;;;20.63;3.58;;;;;;;;;;6273048;22;20010;-89
2022/11/07 00:23:35;;;;;;;26.70;3.80;;;;;;;;;;6271768;22;20007;-85
2022/11/07 00:26:02;;;;;;;30.95;4.25;;;;;;;;;;6272906;22;20336;-90
2022/11/07 00:28:28;;;;;;;24.50;3.58;;;;;;;;;;6270857;22;20004;-85
2022/11/07 00:30:54;;;;;;;22.33;3.95;;;;;;;;;;6273334;22;20003;-90
2022/11/07 00:33:20;;;;;;;20.45;3.28;;;;;;;;;;6272899;22;20074;-85
2022/11/07 00:35:46;;;;;;;25.75;4.13;;;;;;;;;;6273916;22;20031;-90
2022/11/07 00:38:12;;;;;;;21.85;3.97;;;;;;;;;;6273831;22;20000;-90
2022/11/07 00:40:38;;;;;;;24.65;3.40;;;;;;;;;;6273143;22;20364;-90
2022/11/07 00:43:04;;;;;;;28.73;4.60;;;;;;;;;;6271463;22;20000;-90
2022/11/07 00:45:30;;;;;;;27.33;4.68;;;;;;;;;;6273087;22;19999;-89
2022/11/07 00:47:56;;;;;;;25.63;4.07;;;;;;;;;;6273301;22;20049;-90
2022/11/07 00:50:22;;;;;;;32.72;4.20;;;;;;;;;;6272678;22;20015;-88
2022/11/07 00:52:48;;;;;;;22.40;4.05;;;;;;;;;;6273238;22;20000;-87
2022/11/07 00:55:14;;;;;;;24.85;3.88;;;;;;;;;;6272345;22;20008;-85
2022/11/07 00:57:40;;;;;;;24.60;4.45;;;;;;;;;;6273153;22;20002;-91
2022/11/07 01:00:06;;;;;;;28.48;3.60;;;;;;;;;;6272872;22;20046;-90
2022/11/07 01:02:32;;;;;;;35.33;4.50;;;;;;;;;;6271261;22;20391;-90
2022/11/07 01:05:10;;;;;;;24.30;3.60;;;;;;;;;;6271425;22;20424;-90
2022/11/07 01:07:36;;;;;;;35.85;3.75;;;;;;;;;;6272840;22;20066;-90
2022/11/07 01:10:04;;;;;;;31.77;3.75;;;;;;;;;;6272488;22;20430;-90
2022/11/07 01:12:31;;;;;;;27.15;3.85;;;;;;;;;;6273051;22;20332;-90
2022/11/07 01:14:58;;;;;;;28.70;4.43;;;;;;;;;;6271062;22;20012;-88
2022/11/07 01:17:24;;;;;;;20.92;3.65;;;;;;;;;;6272597;22;20455;-88
2022/11/07 01:19:50;;;;;;;24.13;3.92;;;;;;;;;;6272355;22;19999;-85
2022/11/07 01:22:16;;;;;;;32.25;4.40;;;;;;;;;;6273587;22;20318;-89
2022/11/07 01:24:42;;;;;;;26.73;3.70;;;;;;;;;;6270399;22;20090;-90
2022/11/07 01:27:08;;;;;;;34.80;4.60;;;;;;;;;;6272429;22;20033;-87
2022/11/07 01:29:34;;;;;;;26.95;4.43;;;;;;;;;;6271853;22;20444;-90
2022/11/07 01:32:00;;;;;;;26.77;3.53;;;;;;;;;;6272445;22;20027;-89
2022/11/07 01:34:26;;;;;;;20.70;2.97;;;;;;;;;;6272470;22;20141;-90
2022/11/07 01:36:52;;;;;;;31.13;3.83;;;;;;;;;;6270822;22;20095;-85
2022/11/07 01:39:18;;;;;;;26.55;3.75;;;;;;;;;;6273593;22;20004;-89
2022/11/07 01:41:44;;;;;;;33.65;4.15;;;;;;;;;;6272450;22;20070;-89
2022/11/07 01:44:10;;;;;;;29.63;3.33;;;;;;;;;;6272410;22;20249;-85
2022/11/07 01:46:40;;;;;;;27.98;4.20;;;;;;;;;;6272386;22;20004;-89
2022/11/07 01:49:19;;;;;;;33.28;3.65;;;;;;;;;;6272105;22;20010;-88
2022/11/07 01:51:50;;;;;;;26.15;3.72;;;;;;;;;;6272195;22;20478;-90
2022/11/07 01:54:18;;;;;;;27.08;3.70;;;;;;;;;;6273085;22;20447;-90
2022/11/07 01:56:44;;;;;;;26.63;3.50;;;;;;;;;;6272308;22;20053;-88
2022/11/07 01:59:13;;;;;;;21.50;3.15;;;;;;;;;;6271793;22;20424;-89
2022/11/07 02:01:40;;;;;;;18.30;2.72;;;;;;;;;;6272025;22;20305;-89
2022/11/07 02:04:06;;;;;;;21.65;3.33;;;;;;;;;;6270790;22;20049;-87
2022/11/07 02:06:38;;;;;;;23.77;3.25;;;;;;;;;;6269169;22;20071;-87
2022/11/07 02:09:05;;;;;;;22.30;3.47;;;;;;;;;;6270075;22;20457;-88
2022/11/07 02:11:31;;;;;;;22.27;3.45;;;;;;;;;;6268892;22;20090;-90
2022/11/07 02:13:57;;;;;;;23.38;3.30;;;;;;;;;;6270582;22;20047;-88
2022/11/07 02:16:23;;;;;;;21.17;3.55;;;;;;;;;;6271584;22;20003;-87
2022/11/07 02:18:49;;;;;;;19.73;3.58;;;;;;;;;;6272036;22;20003;-88
2022/11/07 02:21:23;;;;;;;20.25;3.35;;;;;;;;;;6271420;22;20061;-85
2022/11/07 02:23:56;;;;;;;23.30;3.35;;;;;;;;;;6272534;22;20000;-89
2022/11/07 02:26:24;;;;;;;23.95;3.47;;;;;;;;;;6272208;22;20004;-86
2022/11/07 02:28:51;;;;;;;20.50;3.20;;;;;;;;;;6271176;22;20057;-88
2022/11/07 02:31:18;;;;;;;23.75;2.70;;;;;;;;;;6271015;22;20003;-88
2022/11/07 02:33:44;;;;;;;22.13;3.13;;;;;;;;;;6271593;22;20015;-85
2022/11/07 02:36:14;;;;;;;20.02;3.28;;;;;;;;;;6270619;22;20065;-85
2022/11/07 02:38:40;;;;;;;24.25;2.83;;;;;;;;;;6274853;22;20332;-88
2022/11/07 02:41:09;;;;;;;21.17;3.30;;;;;;;;;;6274546;22;20027;-88
2022/11/07 02:43:36;;;;;;;20.50;3.10;;;;;;;;;;6274290;22;20006;-89
2022/11/07 02:46:05;;;;;;;18.10;3.03;;;;;;;;;;6274737;22;20066;-89
2022/11/07 02:48:32;;;;;;;18.77;2.67;;;;;;;;;;6274237;22;20070;-88
2022/11/07 02:50:58;;;;;;;24.50;3.25;;;;;;;;;;6272716;22;20008;-87
2022/11/07 02:53:24;;;;;;;21.35;3.72;;;;;;;;;;6273061;22;20033;-86
2022/11/07 02:55:50;;;;;;;17.00;3.05;;;;;;;;;;6272829;22;20090;-86
2022/11/07 02:58:16;;;;;;;17.33;2.90;;;;;;;;;;6274200;22;20027;-85
2022/11/07 03:00:42;;;;;;;27.73;3.97;;;;;;;;;;6274612;22;20052;-88
2022/11/07 03:03:09;;;;;;;23.40;2.88;;;;;;;;;;6273041;22;20106;-88
2022/11/07 03:05:34;;;;;;;20.30;2.97;;;;;;;;;;6273174;22;19995;-87
2022/11/07 03:08:00;;;;;;;10.65;2.75;;;;;;;;;;6274844;22;20018;-88
2022/11/07 03:10:27;;;;;;;15.45;2.55;;;;;;;;;;6274223;22;20003;-88
2022/11/07 03:12:52;;;;;;;16.38;2.78;;;;;;;;;;6275225;22;20070;-87
2022/11/07 03:15:18;;;;;;;14.15;2.85;;;;;;;;;;6274625;22;20391;-86
2022/11/07 03:17:45;;;;;;;18.83;2.80;;;;;;;;;;6274532;22;20074;-87
2022/11/07 03:20:11;;;;;;;29.08;3.70;;;;;;;;;;6272492;22;20012;-86
2022/11/07 03:22:37;;;;;;;19.88;3.40;;;;;;;;;;6274814;22;20003;-88
2022/11/07 03:25:04;;;;;;;22.95;2.88;;;;;;;;;;6274851;22;19996;-86
2022/11/07 03:27:30;;;;;;;25.40;3.20;;;;;;;;;;6273096;22;20003;-87
2022/11/07 03:29:56;;;;;;;21.35;2.97;;;;;;;;;;6274865;22;19999;-86
2022/11/07 03:32:22;;;;;;;28.58;4.05;;;;;;;;;;6275715;22;20067;-87
2022/11/07 03:34:48;;;;;;;20.33;3.05;;;;;;;;;;6274534;22;20019;-87
2022/11/07 03:37:14;;;;;;;26.15;3.58;;;;;;;;;;6274284;22;19995;-87
2022/11/07 03:39:40;;;;;;;28.48;3.50;;;;;;;;;;6274463;22;20004;-88
2022/11/07 03:42:06;;;;;;;20.30;3.33;;;;;;;;;;6273508;22;20000;-86
2022/11/07 03:44:32;;;;;;;18.85;3.00;;;;;;;;;;6273924;22;20451;-88
2022/11/07 03:46:58;;;;;;;26.02;3.85;;;;;;;;;;6273754;22;20004;-87
2022/11/07 03:49:24;;;;;;;17.13;3.17;;;;;;;;;;6271424;22;19999;-85
2022/11/07 03:51:50;;;;;;;22.17;3.53;;;;;;;;;;6272946;22;20003;-90
2022/11/07 03:54:16;;;;;;;19.17;2.85;;;;;;;;;;6271829;22;20015;-85
2022/11/07 03:56:42;;;;;;;18.42;3.10;;;;;;;;;;6272458;22;20054;-86
2022/11/07 03:59:08;;;;;;;19.17;2.80;;;;;;;;;;6273688;22;20015;-89
2022/11/07 04:01:34;;;;;;;21.27;3.00;;;;;;;;;;6272316;22;20000;-89
2022/11/07 04:04:00;;;;;;;20.42;2.78;;;;;;;;;;6271284;22;19999;-86
2022/11/07 04:06:26;;;;;;;15.38;2.88;;;;;;;;;;6272732;22;20437;-89
2022/11/07 04:08:52;;;;;;;24.73;3.10;;;;;;;;;;6271702;22;20008;-89
2022/11/07 04:19:32;;;;;;;21.92;3.20;;;;;;;;;;6272503;22;20015;-88
2022/11/07 04:21:58;;;;;;;15.18;2.58;;;;;;;;;;6272815;22;20000;-88
2022/11/07 04:24:24;;;;;;;19.25;2.80;;;;;;;;;;6273522;22;20053;-87
2022/11/07 04:29:35;;;;;;;15.80;2.65;;;;;;;;;;6272594;22;20065;-86
2022/11/07 04:32:01;;;;;;;15.75;2.83;;;;;;;;;;6272013;22;20106;-86
2022/11/07 04:34:27;;;;;;;18.85;2.97;;;;;;;;;;6273433;22;20018;-89
2022/11/07 04:36:53;;;;;;;20.80;3.20;;;;;;;;;;6271073;22;20004;-88
2022/11/07 04:39:19;;;;;;;17.38;2.67;;;;;;;;;;6271373;22;20042;-87
2022/11/07 04:41:46;;;;;;;19.92;2.92;;;;;;;;;;6271798;22;20050;-88
2022/11/07 04:44:12;;;;;;;19.20;3.00;;;;;;;;;;6270937;22;20008;-85
2022/11/07 04:46:38;;;;;;;18.88;2.97;;;;;;;;;;6271816;22;20060;-85
2022/11/07 04:49:04;;;;;;;19.77;2.90;;;;;;;;;;6272622;22;20381;-86
2022/11/07 04:51:30;;;;;;;18.40;2.72;;;;;;;;;;6272777;22;20008;-86
2022/11/07 04:53:56;;;;;;;25.08;4.03;;;;;;;;;;6272426;22;20000;-87
2022/11/07 05:11:14;;;;;;;;;;;;;;;;;;;;;
2022/11/07 05:14:11;;;;;;;;;;;12.70;99.90;;;;;;6294664;22;19934;-88
2022/11/07 05:16:38;;;;;;;27.55;4.22;;;12.00;99.90;;;;;;6324848;22;19962;-88
2022/11/07 05:19:06;;;;;;;28.63;4.07;;;;;;;;;;6315889;22;20003;-89
2022/11/07 05:21:33;;;;;;;28.20;4.88;;;;;;;;;;6314069;22;20089;-90
2022/11/07 05:24:03;;;;;;;35.65;3.30;;;;;;;;;;6319796;22;20006;-91
2022/11/07 05:26:31;;;;;;;30.10;3.72;;;12.00;99.90;;;;;;6323989;22;20070;-92
2022/11/07 05:29:20;;;;;;;24.77;3.70;;;12.00;99.90;;;;;;6338386;22;19990;-95
2022/11/07 05:31:48;;;;;;;21.88;3.28;;;;;;;;;;6341452;22;20033;-90
2022/11/07 05:34:15;;;;;;;22.42;3.05;;;12.00;99.90;;;;;;6337635;22;20066;-91
2022/11/07 05:36:44;;;;;;;30.55;3.75;;;;;;;;;;6331871;22;19999;-94
2022/11/07 05:39:12;;;;;;;41.33;5.35;;;;;;;;;;6327079;22;20010;-93
2022/11/07 05:41:38;;;;;;;20.70;3.53;;;;;;;;;;6322232;22;20006;-89
2022/11/07 05:44:07;;;;;;;32.50;3.65;;;;;;;;;;6312580;22;19999;-91
2022/11/07 05:47:18;;;;;;;27.05;4.50;;;12.10;99.90;;;;;;6312308;22;20007;-93
2022/11/07 05:50:22;;;;;;;39.42;4.50;;;12.10;99.90;;;;;;6315588;22;20010;-94
2022/11/07 05:53:55;;;;;;;29.50;3.92;;;12.30;99.90;;;;;;6171077;23;20012;-93
2022/11/07 06:07:08;;;;;;;29.70;4.72;;;;;;;;;;5849656;24;20045;-93
2022/11/07 06:09:34;;;;;;;32.22;4.60;;;;;;;;;;5848207;24;20009;-90
2022/11/07 07:40:27;;;;;;;21.85;3.17;;;12.60;99.90;;;;;;5779184;24;20011;-91
2022/11/07 07:43:15;;;;;;;27.23;3.50;;;12.60;99.90;;;;;;5890471;24;20016;-92
2022/11/07 07:45:52;;;;;;;;;;;;;;;;;;;;;
2022/11/07 09:15:37;;;;;;;28.00;3.50;;;14.00;99.90;;;;;;5618966;22;15083666;-95
2022/11/07 09:22:35;;;;;;;35.25;4.28;;;14.10;99.90;;;;;;6016788;23;20060;-95
2022/11/07 10:01:09;;;;;;;;;;;;;;;;;;;;;
2022/11/07 10:07:18;;;;;;;32.00;4.07;;;15.30;99.90;;;;;;6072790;23;20017;-92
2022/11/07 10:10:26;;;;;;;31.80;4.75;;;15.60;99.90;;;;;;6015818;23;20008;-93
2022/11/07 10:14:21;;;;;;;34.65;4.93;;;15.60;99.90;;;;;;6044778;23;20341;-93
2022/11/07 10:19:59;;;;;;;45.63;6.10;;;;;;;;;;6012854;23;20240;-91
2022/11/07 10:22:35;;;;;;;;;;;;;;;;;;;;;
2022/11/07 10:25:07;;;;;;;31.58;4.00;;;15.70;99.90;;;;;;6147897;23;20082;-92
2022/11/07 10:41:19;;;;;;;29.35;5.07;;;15.80;99.90;;;;;;5957515;24;20377;-92
2022/11/07 10:44:36;;;;;;;;;;;;;;;;;;;;;
2022/11/07 11:44:11;;;;;;;;;;;;;;;;;;;;;
2022/11/07 13:08:37;;;;;;;27.00;4.93;;;16.20;99.90;;;;;;6164998;23;20017;-95
2022/11/07 13:12:43;;;;;;;;;;;;;;;;;;;;;
2022/11/07 13:19:17;;;;;;;;;;;;;;;;;;;;;
2022/11/07 13:26:14;;;;;;;;;;;;;;;;;;;;;
2022/11/07 13:39:35;;;;;;;34.55;4.32;;;16.40;99.90;;;;;;5872607;24;20018;-93
2022/11/07 13:49:55;;;;;;;25.05;4.80;;;16.40;99.90;;;;;;5919460;24;20105;-93
2022/11/07 13:53:03;;;;;;;25.17;4.65;;;16.30;99.90;;;;;;5908180;24;20013;-92
2022/11/07 13:55:51;;;;;;;27.92;3.90;;;16.20;99.90;;;;;;5923574;24;20009;-93
2022/11/07 13:59:28;;;;;;;;;;;;;;;;;;;;;
2022/11/07 14:01:46;;;;;;;20.45;3.45;;;;;;;;;;5988079;23;20035;-92
2022/11/07 14:08:20;;;;;;;;;;;;;;;;;;;;;
2022/11/07 14:11:36;;;;;;;;;;;;;;;;;;;;;
2022/11/07 14:14:06;;;;;;;23.42;3.63;;;;;;;;;;5952951;24;20117;-91
2022/11/07 14:56:56;;;;;;;27.55;3.70;;;15.80;99.90;;;;;;6156603;22;1375801;-92
2022/11/07 14:59:57;;;;;;;;;;;;;;;;;;;;;
2022/11/07 15:02:13;;;;;;;20.98;3.60;;;;;;;;;;6185675;23;20028;-93
2022/11/07 15:04:53;;;;;;;17.85;3.40;;;15.90;99.90;;;;;;6190071;23;20447;-90
2022/11/07 15:07:23;;;;;;;27.10;3.97;;;15.90;99.90;;;;;;6188068;23;20008;-90
2022/11/07 15:09:52;;;;;;;21.88;3.88;;;15.90;99.90;;;;;;6190380;23;20253;-90
2022/11/07 15:12:29;;;;;;;20.38;4.50;;;15.90;99.90;;;;;;6188872;23;20331;-92
2022/11/07 15:15:11;;;;;;;22.70;4.13;;;16.50;99.90;;;;;;6191101;23;20025;-90
2022/11/07 15:17:55;;;;;;;27.17;4.20;;;15.90;99.90;;;;;;6188743;23;20021;-91
2022/11/07 15:20:38;;;;;;;22.00;3.15;;;15.80;99.90;;;;;;6188636;23;20096;-93
2022/11/07 15:23:24;;;;;;;20.45;3.60;;;15.80;99.90;;;;;;6188909;23;20287;-92
2022/11/07 15:25:58;;;;;;;25.27;3.75;;;;;;;;;;6189292;23;20001;-91
2022/11/07 15:28:47;;;;;;;24.60;4.07;;;15.80;99.90;;;;;;6184169;23;20015;-91
2022/11/07 15:31:25;;;;;;;15.88;3.33;;;15.80;99.90;;;;;;6188248;23;20008;-88
2022/11/07 15:34:28;;;;;;;;;;;15.80;99.90;;;;;;6189892;23;20358;-92
2022/11/07 15:37:04;;;;;;;;;;;;;;;;;;;;;
2022/11/07 15:39:41;;;;;;;18.40;3.50;;;;;;;;;;6190740;23;20084;-92
2022/11/07 15:42:50;;;;;;;;;;;15.70;99.90;;;;;;6189278;23;20008;-93
2022/11/07 15:45:20;;;;;;;;;;;15.60;99.90;;;;;;6189441;23;19900;-93
2022/11/07 15:47:46;;;;;;;;;;;15.60;99.90;;;;;;6187972;23;19904;-90
2022/11/07 15:51:02;;;;;;;;;;;13.60;99.90;;;;;;6181919;23;19907;-93
2022/11/07 15:53:38;;;;;;;;;;;15.60;99.90;;;;;;6160238;23;19907;-93
2022/11/07 15:56:30;;;;;;;;;;;15.00;99.90;;;;;;6183154;23;19908;-92
2022/11/07 15:59:03;;;;;;;;;;;;;;;;;;6183320;23;19904;-92
2022/11/07 16:01:37;;;;;;;;;;;15.40;99.90;;;;;;6184768;23;19900;-92
2022/11/07 16:04:04;;;;;;;;;;;15.30;99.90;;;;;;6182434;23;19900;-92
2022/11/07 16:06:30;;;;;;;;;;;15.20;99.90;;;;;;6183718;23;19900;-91
2022/11/07 16:08:56;;;;;;;;;;;15.10;99.90;;;;;;6183100;23;19908;-91
2022/11/07 16:11:30;;;;;;;;;;;12.10;99.90;;;;;;6182537;23;20352;-93
2022/11/07 16:13:56;;;;;;;;;;;15.10;99.90;;;;;;6184806;23;19904;-91
2022/11/07 16:16:25;;;;;;;;;;;12.90;99.90;;;;;;6180574;23;20062;-90
2022/11/07 16:18:51;;;;;;;;;;;14.80;99.90;;;;;;6182040;23;19907;-91
2022/11/07 16:21:17;;;;;;;;;;;14.80;99.90;;;;;;6181881;23;19900;-90
2022/11/07 16:23:52;;;;;;;;;;;14.70;99.90;;;;;;6181476;23;19907;-91
2022/11/07 16:26:27;;;;;;;;;;;14.70;99.90;;;;;;6182862;23;19907;-91
2022/11/07 16:44:21;;;;;;;;;;;;;;;;;;;;;
2022/11/07 16:46:49;;;;;;;;;;;11.00;99.90;;;;;;5866379;24;19987;-93
2022/11/07 16:49:56;;;;;;;;;;;11.30;99.90;;;;;;5868612;24;19911;-94
2022/11/07 16:52:26;;;;;;;;;;;14.20;99.90;;;;;;5841511;24;20235;-90
2022/11/07 16:54:52;;;;;;;;;;;11.90;99.90;;;;;;5915785;23;19933;-90
2022/11/07 16:57:18;;;;;;;;;;;14.30;99.90;;;;;;6138822;23;20218;-90
2022/11/07 16:59:44;;;;;;;;;;;14.20;99.90;;;;;;6181369;23;19900;-92
2022/11/07 17:11:44;;;;;;;;;;;;;;;;;;5926375;24;19911;-92
2022/11/07 17:20:39;;;;;;;;;;;16.30;99.90;;;;;;5846994;24;19904;-94
2022/11/07 18:13:13;;;;;;;;;;;16.50;99.90;;;;;;5674827;25;19918;-94
2022/11/07 19:19:45;;;;;;;;;;;16.60;99.90;;;;;;6199795;22;2096432;-92
2022/11/07 19:47:55;;;;;;;;;;;;;;;;;;5969916;24;19971;-94
2022/11/07 21:15:54;;;;;;;;;;;;;;;;;;;;;
2022/11/07 21:18:21;;;;;;;21.83;4.60;;;;;;;;;;6102146;23;19929;-89
2022/11/07 21:20:47;;;;;;;16.88;4.35;;;;;;;;;;6148726;23;20013;-87
2022/11/07 21:23:14;;;;;;;21.33;3.70;;;;;;;;;;6227517;22;20018;-85
2022/11/07 21:25:42;;;;;;;14.23;3.72;;;13.80;99.90;;;;;;6271728;22;19995;-87
2022/11/07 21:28:15;;;;;;;18.13;4.07;;;13.70;99.90;;;;;;6271602;22;20499;-85
2022/11/07 21:30:56;;;;;;;19.95;4.63;;;13.70;99.90;;;;;;6270452;22;20104;-89
2022/11/07 21:33:22;;;;;;;17.70;3.97;;;;;;;;;;6271901;22;20039;-89
2022/11/07 21:35:48;;;;;;;13.57;3.80;;;;;;;;;;6272134;22;20003;-86
2022/11/07 21:38:14;;;;;;;11.30;4.00;;;;;;;;;;6271482;22;20070;-89
2022/11/07 21:40:40;;;;;;;15.40;4.40;;;;;;;;;;6270827;22;20019;-87
2022/11/07 21:43:06;;;;;;;14.90;4.55;;;;;;;;;;6272784;22;20385;-85
2022/11/07 21:45:33;;;;;;;49.80;24.48;;;;;;;;;;6272157;22;20452;-85
2022/11/07 21:47:58;;;;;;;11.70;3.97;;;;;;;;;;6271492;22;20002;-85
2022/11/07 21:50:24;;;;;;;20.23;6.82;;;;;;;;;;6271017;22;20031;-88
2022/11/07 21:52:51;;;;;;;20.10;5.28;;;;;;;;;;6271734;22;20083;-89
2022/11/07 21:55:17;;;;;;;10.55;3.92;;;;;;;;;;6272269;22;20042;-89
2022/11/07 21:57:45;;;;;;;19.58;5.75;;;13.60;99.90;;;;;;6271553;22;20000;-85
2022/11/07 22:00:11;;;;;;;16.58;4.85;;;;;;;;;;6271135;22;20074;-87
2022/11/07 22:02:37;;;;;;;18.75;4.85;;;;;;;;;;6271801;22;20000;-85
2022/11/07 22:05:03;;;;;;;15.70;4.65;;;;;;;;;;6272996;22;20011;-87
2022/11/07 22:07:33;;;;;;;18.42;4.97;;;13.50;99.90;;;;;;6270932;22;19995;-87
2022/11/07 22:09:59;;;;;;;17.38;5.35;;;;;;;;;;6270790;22;20030;-90
2022/11/07 22:12:25;;;;;;;12.07;3.70;;;;;;;;;;6272878;22;19999;-90
2022/11/07 22:14:51;;;;;;;14.80;5.15;;;;;;;;;;6272833;22;20034;-90
2022/11/07 22:17:17;;;;;;;16.65;4.32;;;;;;;;;;6271034;22;20025;-89
2022/11/07 22:19:45;;;;;;;15.13;4.45;;;;;;;;;;6272393;22;20018;-84
2022/11/07 22:22:11;;;;;;;15.93;4.40;;;;;;;;;;6273309;22;20006;-89
2022/11/07 22:24:37;;;;;;;12.27;4.00;;;;;;;;;;6273141;22;20078;-90
2022/11/07 22:27:03;;;;;;;12.68;3.90;;;;;;;;;;6274136;22;20003;-91
2022/11/07 22:29:29;;;;;;;12.63;4.53;;;;;;;;;;6273245;22;20008;-90
2022/11/07 22:31:56;;;;;;;17.98;4.05;;;;;;;;;;6272425;22;19996;-86
2022/11/07 22:34:21;;;;;;;11.48;3.80;;;;;;;;;;6271750;22;20400;-91
2022/11/07 22:36:48;;;;;;;10.40;4.13;;;;;;;;;;6273174;22;20022;-91
2022/11/07 22:39:14;;;;;;;10.50;3.88;;;;;;;;;;6273159;22;20007;-90
2022/11/07 22:41:40;;;;;;;10.85;3.88;;;;;;;;;;6272396;22;20058;-91
2022/11/07 22:44:06;;;;;;;14.32;4.00;;;;;;;;;;6274497;22;19999;-90
2022/11/07 22:46:32;;;;;;;11.02;3.72;;;;;;;;;;6271723;22;20085;-90
2022/11/07 22:48:58;;;;;;;15.02;4.03;;;;;;;;;;6271657;22;20065;-91
2022/11/07 22:51:30;;;;;;;13.98;3.85;;;13.30;99.90;;;;;;6272366;22;20078;-89
2022/11/07 22:54:10;;;;;;;11.88;3.50;;;13.30;99.90;;;;;;6273754;22;20019;-90
2022/11/07 22:56:37;;;;;;;10.98;3.65;;;;;;;;;;6275196;22;20034;-90
2022/11/07 22:59:04;;;;;;;14.90;3.78;;;13.20;99.90;;;;;;6274056;22;20008;-90
2022/11/07 23:01:32;;;;;;;11.27;3.88;;;13.30;99.90;;;;;;6273321;22;20209;-91
2022/11/07 23:03:58;;;;;;;;;;;13.20;99.90;;;;;;6274095;22;20471;-90
2022/11/07 23:06:24;;;;;;;8.05;3.65;;;13.40;99.90;;;;;;6273693;22;19899;-90
2022/11/07 23:08:51;;;;;;;11.90;3.60;;;;;;;;;;6271433;22;20007;-90
2022/11/07 23:11:22;;;;;;;14.30;4.03;;;13.00;99.90;;;;;;6271659;22;20083;-92
2022/11/07 23:13:49;;;;;;;13.68;4.22;;;13.10;99.90;;;;;;6273081;22;20031;-92
2022/11/07 23:16:23;;;;;;;8.32;3.92;;;13.00;99.90;;;;;;6272855;22;19996;-91
2022/11/07 23:18:49;;;;;;;14.85;3.85;;;;;;;;;;6272909;22;20004;-92
2022/11/07 23:21:15;;;;;;;10.18;3.90;;;13.20;99.90;;;;;;6273165;22;20027;-92
2022/11/07 23:23:42;;;;;;;10.80;3.47;;;13.00;99.90;;;;;;6273067;22;19999;-88
2022/11/07 23:26:14;;;;;;;9.93;3.58;;;12.90;99.90;;;;;;6274097;22;20369;-91
2022/11/07 23:28:41;;;;;;;8.05;3.40;;;12.80;99.90;;;;;;6273056;22;20090;-89
2022/11/07 23:31:07;;;;;;;8.88;3.63;;;13.00;99.90;;;;;;6273799;22;20000;-90
2022/11/07 23:33:35;;;;;;;9.13;3.80;;;;;;;;;;6271094;22;20004;-85
2022/11/07 23:36:02;;;;;;;8.80;3.50;;;;;;;;;;6270806;22;20656;-85
2022/11/07 23:38:28;;;;;;;9.75;4.28;;;;;;;;;;6272340;22;20000;-90
2022/11/07 23:40:54;;;;;;;13.82;4.20;;;;;;;;;;6272724;22;20008;-90
2022/11/07 23:43:20;;;;;;;13.00;3.45;;;;;;;;;;6271909;22;20440;-91
2022/11/07 23:51:16;;;;;;;10.90;3.70;;;;;;;;;;6274632;22;20065;-90
2022/11/07 23:56:27;;;;;;;11.07;4.00;;;12.80;99.90;;;;;;6274315;22;20052;-91
